Joint Base McGuire-Dix-Lakehurst, New Jersey
Current Conditions -  °F | °C
As of 2:58 AM on Thursday 18 Dec 2014 (Local Time) from KWRI Reporting Station
Overcast Overcast  
Wind Chill: 29°   Ceiling: 4200
Heat Index: 37°   Visibility: 10mi
Dew Point: 22°   Wind: 12mph
Humidity: 56%   Direction: 300°WNW
Pressure: 29.95"   Gusts: NA
Location:  40.01°N, 74.52°W
Report Text: KWRI 180758Z AUTO 30010KT 10SM BKN042 OVC070 03/M05 A2995 RMK AO2 SLP146 T00251054
Loading
Personal Weather Stations






























Interactive Weather Map New forecast layout! Learn more

10-Day Weather Forecast

Advertisements
Track Severe Weather on mobile